sensor_id;sensor_type;location;lat;lon;timestamp;pressure;altitude;pressure_sealevel;temperature;humidity
74905;BME280;63465;50.862;6.220;2023-05-10T00:00:08;99232.50;;;12.92;100.00
74905;BME280;63465;50.862;6.220;2023-05-10T00:02:34;99234.66;;;13.00;100.00
74905;BME280;63465;50.862;6.220;2023-05-10T00:05:00;99228.38;;;13.01;100.00
74905;BME280;63465;50.862;6.220;2023-05-10T00:07:25;99236.25;;;12.90;100.00
74905;BME280;63465;50.862;6.220;2023-05-10T00:09:50;99230.41;;;12.97;100.00
74905;BME280;63465;50.862;6.220;2023-05-10T00:12:15;99232.00;;;13.00;100.00
74905;BME280;63465;50.862;6.220;2023-05-10T00:14:41;99229.63;;;12.95;100.00
74905;BME280;63465;50.862;6.220;2023-05-10T00:17:06;99234.88;;;12.97;100.00
74905;BME280;63465;50.862;6.220;2023-05-10T00:19:31;99231.06;;;13.01;100.00
74905;BME280;63465;50.862;6.220;2023-05-10T00:21:57;99231.47;;;12.95;100.00
74905;BME280;63465;50.862;6.220;2023-05-10T00:24:22;99237.84;;;12.92;100.00
74905;BME280;63465;50.862;6.220;2023-05-10T00:26:47;99229.50;;;12.84;100.00
74905;BME280;63465;50.862;6.220;2023-05-10T00:29:13;99229.34;;;13.00;100.00
74905;BME280;63465;50.862;6.220;2023-05-10T00:31:38;99234.31;;;12.92;100.00
74905;BME280;63465;50.862;6.220;2023-05-10T00:34:03;99231.03;;;12.88;100.00
74905;BME280;63465;50.862;6.220;2023-05-10T00:36:28;99226.66;;;13.00;100.00
74905;BME280;63465;50.862;6.220;2023-05-10T00:38:54;99224.97;;;12.99;100.00
74905;BME280;63465;50.862;6.220;2023-05-10T00:41:19;99231.47;;;13.08;100.00
74905;BME280;63465;50.862;6.220;2023-05-10T00:43:46;99233.69;;;12.88;100.00
74905;BME280;63465;50.862;6.220;2023-05-10T00:46:11;99235.63;;;12.99;100.00
74905;BME280;63465;50.862;6.220;2023-05-10T00:48:37;99231.78;;;13.03;100.00
74905;BME280;63465;50.862;6.220;2023-05-10T00:51:03;99228.16;;;12.91;100.00
74905;BME280;63465;50.862;6.220;2023-05-10T00:53:30;99228.06;;;12.93;100.00
74905;BME280;63465;50.862;6.220;2023-05-10T00:55:56;99231.34;;;12.96;100.00
74905;BME280;63465;50.862;6.220;2023-05-10T00:58:21;99228.50;;;12.99;100.00
74905;BME280;63465;50.862;6.220;2023-05-10T01:00:49;99234.22;;;12.93;100.00
74905;BME280;63465;50.862;6.220;2023-05-10T01:03:15;99230.84;;;13.04;100.00
74905;BME280;63465;50.862;6.220;2023-05-10T01:05:40;99230.31;;;12.99;100.00
74905;BME280;63465;50.862;6.220;2023-05-10T01:08:06;99231.97;;;12.87;100.00
74905;BME280;63465;50.862;6.220;2023-05-10T01:10:33;99234.91;;;13.10;100.00
74905;BME280;63465;50.862;6.220;2023-05-10T01:12:59;99233.81;;;12.99;100.00
74905;BME280;63465;50.862;6.220;2023-05-10T01:15:24;99234.88;;;12.97;100.00
74905;BME280;63465;50.862;6.220;2023-05-10T01:17:51;99239.34;;;12.96;100.00
74905;BME280;63465;50.862;6.220;2023-05-10T01:20:16;99238.09;;;13.02;100.00
74905;BME280;63465;50.862;6.220;2023-05-10T01:22:53;99227.66;;;12.99;100.00
74905;BME280;63465;50.862;6.220;2023-05-10T01:25:37;99227.38;;;12.89;100.00
74905;BME280;63465;50.862;6.220;2023-05-10T01:43:55;99228.72;;;13.09;100.00
74905;BME280;63465;50.862;6.220;2023-05-10T01:46:28;99236.06;;;13.06;100.00
74905;BME280;63465;50.862;6.220;2023-05-10T01:48:58;99232.47;;;13.07;100.00
74905;BME280;63465;50.862;6.220;2023-05-10T01:51:29;99226.78;;;12.98;100.00
74905;BME280;63465;50.862;6.220;2023-05-10T01:54:01;99229.34;;;13.00;100.00
74905;BME280;63465;50.862;6.220;2023-05-10T01:56:29;99238.63;;;13.07;100.00
74905;BME280;63465;50.862;6.220;2023-05-10T01:58:56;99240.66;;;13.03;100.00
74905;BME280;63465;50.862;6.220;2023-05-10T02:01:24;99232.97;;;12.99;100.00
74905;BME280;63465;50.862;6.220;2023-05-10T02:03:51;99238.94;;;13.02;100.00
74905;BME280;63465;50.862;6.220;2023-05-10T02:06:18;99235.44;;;13.02;100.00
74905;BME280;63465;50.862;6.220;2023-05-10T02:08:46;99232.88;;;13.00;100.00
74905;BME280;63465;50.862;6.220;2023-05-10T02:11:13;99231.03;;;12.88;100.00
74905;BME280;63465;50.862;6.220;2023-05-10T02:13:39;99231.91;;;13.01;100.00
74905;BME280;63465;50.862;6.220;2023-05-10T02:16:05;99236.59;;;12.98;100.00
74905;BME280;63465;50.862;6.220;2023-05-10T02:18:33;99243.84;;;12.96;100.00
74905;BME280;63465;50.862;6.220;2023-05-10T02:21:02;99243.84;;;12.96;100.00
74905;BME280;63465;50.862;6.220;2023-05-10T02:23:28;99248.06;;;12.98;100.00
74905;BME280;63465;50.862;6.220;2023-05-10T02:25:54;99249.75;;;12.87;100.00
74905;BME280;63465;50.862;6.220;2023-05-10T02:28:23;99253.78;;;12.79;100.00
74905;BME280;63465;50.862;6.220;2023-05-10T02:30:49;99256.88;;;12.86;100.00
74905;BME280;63465;50.862;6.220;2023-05-10T02:33:16;99259.59;;;12.99;100.00
74905;BME280;63465;50.862;6.220;2023-05-10T02:35:42;99253.59;;;12.95;100.00
74905;BME280;63465;50.862;6.220;2023-05-10T02:38:08;99261.50;;;12.97;100.00
74905;BME280;63465;50.862;6.220;2023-05-10T02:40:36;99267.69;;;12.97;100.00
74905;BME280;63465;50.862;6.220;2023-05-10T02:43:02;99270.19;;;12.86;100.00
74905;BME280;63465;50.862;6.220;2023-05-10T02:45:30;99262.34;;;12.70;100.00
74905;BME280;63465;50.862;6.220;2023-05-10T02:47:56;99268.50;;;12.85;100.00
74905;BME280;63465;50.862;6.220;2023-05-10T02:50:22;99259.09;;;12.79;100.00
74905;BME280;63465;50.862;6.220;2023-05-10T02:52:54;99263.31;;;12.69;100.00
74905;BME280;63465;50.862;6.220;2023-05-10T02:55:25;99272.47;;;12.65;100.00
74905;BME280;63465;50.862;6.220;2023-05-10T02:57:55;99268.81;;;12.66;100.00
74905;BME280;63465;50.862;6.220;2023-05-10T03:00:21;99265.56;;;12.75;100.00
74905;BME280;63465;50.862;6.220;2023-05-10T03:02:47;99277.69;;;12.66;100.00
74905;BME280;63465;50.862;6.220;2023-05-10T03:05:12;99266.41;;;12.48;100.00
74905;BME280;63465;50.862;6.220;2023-05-10T03:07:37;99268.56;;;12.56;100.00
74905;BME280;63465;50.862;6.220;2023-05-10T03:10:03;99264.28;;;12.54;100.00
74905;BME280;63465;50.862;6.220;2023-05-10T03:18:52;99262.88;;;12.48;100.00
74905;BME280;63465;50.862;6.220;2023-05-10T03:21:20;99259.00;;;12.39;100.00
74905;BME280;63465;50.862;6.220;2023-05-10T03:23:51;99265.56;;;12.34;100.00
74905;BME280;63465;50.862;6.220;2023-05-10T03:26:24;99265.00;;;12.28;100.00
74905;BME280;63465;50.862;6.220;2023-05-10T03:28:52;99265.22;;;12.25;100.00
74905;BME280;63465;50.862;6.220;2023-05-10T03:31:18;99268.81;;;12.24;100.00
74905;BME280;63465;50.862;6.220;2023-05-10T03:33:48;99274.59;;;12.31;100.00
74905;BME280;63465;50.862;6.220;2023-05-10T03:36:13;99273.00;;;12.28;100.00
74905;BME280;63465;50.862;6.220;2023-05-10T03:38:39;99268.16;;;12.21;100.00
74905;BME280;63465;50.862;6.220;2023-05-10T03:41:04;99270.03;;;12.19;100.00
74905;BME280;63465;50.862;6.220;2023-05-10T03:43:29;99267.19;;;12.22;100.00
74905;BME280;63465;50.862;6.220;2023-05-10T03:45:55;99276.63;;;12.13;100.00
74905;BME280;63465;50.862;6.220;2023-05-10T03:48:20;99274.06;;;12.11;100.00
74905;BME280;63465;50.862;6.220;2023-05-10T03:50:45;99265.97;;;12.13;100.00
74905;BME280;63465;50.862;6.220;2023-05-10T03:53:11;99280.22;;;12.12;100.00
74905;BME280;63465;50.862;6.220;2023-05-10T03:55:36;99271.50;;;12.10;100.00
74905;BME280;63465;50.862;6.220;2023-05-10T03:58:01;99277.94;;;12.06;100.00
74905;BME280;63465;50.862;6.220;2023-05-10T04:00:27;99284.09;;;12.06;100.00
74905;BME280;63465;50.862;6.220;2023-05-10T04:02:52;99284.00;;;12.08;100.00
74905;BME280;63465;50.862;6.220;2023-05-10T04:05:17;99287.63;;;12.07;100.00
74905;BME280;63465;50.862;6.220;2023-05-10T04:07:42;99296.47;;;12.07;100.00
74905;BME280;63465;50.862;6.220;2023-05-10T04:10:09;99284.59;;;12.13;100.00
74905;BME280;63465;50.862;6.220;2023-05-10T04:12:35;99288.28;;;12.10;100.00
74905;BME280;63465;50.862;6.220;2023-05-10T04:15:00;99284.50;;;12.15;100.00
74905;BME280;63465;50.862;6.220;2023-05-10T04:17:26;99290.00;;;12.11;100.00
74905;BME280;63465;50.862;6.220;2023-05-10T04:19:51;99297.03;;;12.12;100.00
74905;BME280;63465;50.862;6.220;2023-05-10T04:22:19;99293.41;;;12.13;100.00
74905;BME280;63465;50.862;6.220;2023-05-10T04:24:45;99290.00;;;12.11;100.00
74905;BME280;63465;50.862;6.220;2023-05-10T04:27:10;99293.41;;;12.13;100.00
74905;BME280;63465;50.862;6.220;2023-05-10T04:29:36;99291.69;;;12.12;100.00
74905;BME280;63465;50.862;6.220;2023-05-10T04:32:02;99294.38;;;12.12;100.00
74905;BME280;63465;50.862;6.220;2023-05-10T04:34:27;99294.66;;;12.22;100.00
74905;BME280;63465;50.862;6.220;2023-05-10T04:36:52;99291.31;;;12.19;100.00
74905;BME280;63465;50.862;6.220;2023-05-10T04:39:17;99299.41;;;12.17;100.00
74905;BME280;63465;50.862;6.220;2023-05-10T04:41:43;99289.91;;;12.13;100.00
74905;BME280;63465;50.862;6.220;2023-05-10T04:44:08;99290.09;;;12.10;100.00
74905;BME280;63465;50.862;6.220;2023-05-10T04:46:34;99296.44;;;12.22;100.00
74905;BME280;63465;50.862;6.220;2023-05-10T04:48:59;99298.75;;;12.13;100.00
74905;BME280;63465;50.862;6.220;2023-05-10T04:51:24;99296.81;;;12.16;100.00
74905;BME280;63465;50.862;6.220;2023-05-10T04:53:50;99295.25;;;12.13;100.00
74905;BME280;63465;50.862;6.220;2023-05-10T04:56:15;99302.16;;;12.16;100.00
74905;BME280;63465;50.862;6.220;2023-05-10T04:58:41;99308.06;;;12.21;100.00
74905;BME280;63465;50.862;6.220;2023-05-10T05:01:07;99305.41;;;12.21;100.00
74905;BME280;63465;50.862;6.220;2023-05-10T05:03:34;99304.44;;;12.22;100.00
74905;BME280;63465;50.862;6.220;2023-05-10T05:06:00;99306.91;;;12.25;100.00
74905;BME280;63465;50.862;6.220;2023-05-10T05:08:25;99303.78;;;12.18;100.00
74905;BME280;63465;50.862;6.220;2023-05-10T05:10:51;99298.44;;;12.18;100.00
74905;BME280;63465;50.862;6.220;2023-05-10T05:13:16;99302.66;;;12.22;100.00
74905;BME280;63465;50.862;6.220;2023-05-10T05:15:41;99303.22;;;12.13;100.00
74905;BME280;63465;50.862;6.220;2023-05-10T05:18:07;99305.88;;;12.13;100.00
74905;BME280;63465;50.862;6.220;2023-05-10T05:20:33;99309.66;;;12.09;100.00
74905;BME280;63465;50.862;6.220;2023-05-10T05:22:59;99316.91;;;12.07;100.00
74905;BME280;63465;50.862;6.220;2023-05-10T05:25:24;99323.81;;;12.09;100.00
74905;BME280;63465;50.862;6.220;2023-05-10T05:27:50;99320.97;;;12.27;100.00
74905;BME280;63465;50.862;6.220;2023-05-10T05:30:15;99319.81;;;12.17;100.00
74905;BME280;63465;50.862;6.220;2023-05-10T05:32:40;99327.44;;;12.23;100.00
74905;BME280;63465;50.862;6.220;2023-05-10T05:35:06;99325.16;;;12.17;100.00
74905;BME280;63465;50.862;6.220;2023-05-10T05:37:31;99326.38;;;12.25;100.00
74905;BME280;63465;50.862;6.220;2023-05-10T05:39:57;99331.72;;;12.25;100.00
74905;BME280;63465;50.862;6.220;2023-05-10T05:42:22;99336.38;;;12.36;100.00
74905;BME280;63465;50.862;6.220;2023-05-10T05:44:47;99330.84;;;12.39;100.00
74905;BME280;63465;50.862;6.220;2023-05-10T05:47:13;99338.72;;;12.26;100.00
74905;BME280;63465;50.862;6.220;2023-05-10T05:49:38;99343.00;;;12.43;100.00
74905;BME280;63465;50.862;6.220;2023-05-10T05:52:04;99342.59;;;12.49;100.00
74905;BME280;63465;50.862;6.220;2023-05-10T05:54:30;99343.38;;;12.37;100.00
74905;BME280;63465;50.862;6.220;2023-05-10T05:57:00;99349.38;;;12.41;100.00
74905;BME280;63465;50.862;6.220;2023-05-10T05:59:26;99345.38;;;12.48;100.00
74905;BME280;63465;50.862;6.220;2023-05-10T06:01:51;99349.38;;;12.41;100.00
74905;BME280;63465;50.862;6.220;2023-05-10T06:04:17;99356.69;;;12.37;100.00
74905;BME280;63465;50.862;6.220;2023-05-10T06:06:43;99351.00;;;12.29;100.00
74905;BME280;63465;50.862;6.220;2023-05-10T06:09:08;99357.94;;;12.31;100.00
74905;BME280;63465;50.862;6.220;2023-05-10T06:11:34;99361.44;;;12.46;100.00
74905;BME280;63465;50.862;6.220;2023-05-10T06:14:00;99368.28;;;12.51;100.00
74905;BME280;63465;50.862;6.220;2023-05-10T06:16:26;99367.34;;;12.52;100.00
74905;BME280;63465;50.862;6.220;2023-05-10T06:18:52;99367.91;;;12.42;100.00
74905;BME280;63465;50.862;6.220;2023-05-10T06:21:17;99364.00;;;12.48;100.00
74905;BME280;63465;50.862;6.220;2023-05-10T06:23:42;99370.06;;;12.64;100.00
74905;BME280;63465;50.862;6.220;2023-05-10T06:26:09;99378.84;;;12.66;100.00
74905;BME280;63465;50.862;6.220;2023-05-10T06:28:34;99363.69;;;12.81;100.00
74905;BME280;63465;50.862;6.220;2023-05-10T06:31:00;99371.59;;;12.69;100.00
74905;BME280;63465;50.862;6.220;2023-05-10T06:33:25;99381.13;;;12.73;100.00
74905;BME280;63465;50.862;6.220;2023-05-10T06:35:51;99380.78;;;12.92;100.00
74905;BME280;63465;50.862;6.220;2023-05-10T06:38:16;99390.50;;;12.78;100.00
74905;BME280;63465;50.862;6.220;2023-05-10T06:40:42;99385.28;;;12.91;100.00
74905;BME280;63465;50.862;6.220;2023-05-10T06:43:07;99389.56;;;12.79;100.00
74905;BME280;63465;50.862;6.220;2023-05-10T06:45:33;99394.03;;;12.79;100.00
74905;BME280;63465;50.862;6.220;2023-05-10T06:47:58;99390.50;;;12.78;100.00
74905;BME280;63465;50.862;6.220;2023-05-10T06:50:23;99387.53;;;12.97;100.00
74905;BME280;63465;50.862;6.220;2023-05-10T06:52:49;99392.38;;;12.91;100.00
74905;BME280;63465;50.862;6.220;2023-05-10T06:55:14;99393.72;;;12.98;100.00
74905;BME280;63465;50.862;6.220;2023-05-10T06:57:39;99393.03;;;13.09;100.00
74905;BME280;63465;50.862;6.220;2023-05-10T07:00:05;99396.63;;;13.08;100.00
74905;BME280;63465;50.862;6.220;2023-05-10T07:02:30;99403.97;;;13.18;100.00
74905;BME280;63465;50.862;6.220;2023-05-10T07:04:56;99411.75;;;13.22;100.00
74905;BME280;63465;50.862;6.220;2023-05-10T07:07:21;99415.56;;;13.03;100.00
74905;BME280;63465;50.862;6.220;2023-05-10T07:09:46;99409.84;;;13.09;100.00
74905;BME280;63465;50.862;6.220;2023-05-10T07:12:12;99410.63;;;13.11;100.00
74905;BME280;63465;50.862;6.220;2023-05-10T07:14:37;99411.59;;;12.81;100.00
74905;BME280;63465;50.862;6.220;2023-05-10T07:17:03;99418.63;;;13.11;100.00
74905;BME280;63465;50.862;6.220;2023-05-10T07:19:28;99423.31;;;12.93;100.00
74905;BME280;63465;50.862;6.220;2023-05-10T07:21:54;99422.00;;;12.72;100.00
74905;BME280;63465;50.862;6.220;2023-05-10T07:24:20;99422.38;;;12.65;100.00
74905;BME280;63465;50.862;6.220;2023-05-10T07:26:45;99426.16;;;12.90;100.00
74905;BME280;63465;50.862;6.220;2023-05-10T07:29:10;99427.00;;;12.91;100.00
74905;BME280;63465;50.862;6.220;2023-05-10T07:31:36;99425.00;;;12.80;100.00
74905;BME280;63465;50.862;6.220;2023-05-10T07:34:01;99426.84;;;12.79;100.00
74905;BME280;63465;50.862;6.220;2023-05-10T07:36:27;99430.81;;;12.72;100.00
74905;BME280;63465;50.862;6.220;2023-05-10T07:38:52;99438.63;;;12.75;100.00
74905;BME280;63465;50.862;6.220;2023-05-10T07:41:18;99434.06;;;12.48;100.00
74905;BME280;63465;50.862;6.220;2023-05-10T07:43:43;99436.72;;;12.48;100.00
74905;BME280;63465;50.862;6.220;2023-05-10T07:46:09;99439.09;;;12.53;100.00
74905;BME280;63465;50.862;6.220;2023-05-10T07:48:36;99446.34;;;12.51;100.00
74905;BME280;63465;50.862;6.220;2023-05-10T07:51:02;99444.91;;;12.60;100.00
74905;BME280;63465;50.862;6.220;2023-05-10T07:53:27;99447.97;;;12.68;100.00
74905;BME280;63465;50.862;6.220;2023-05-10T07:55:59;99453.81;;;12.44;100.00
74905;BME280;63465;50.862;6.220;2023-05-10T07:58:24;99458.75;;;12.51;100.00
74905;BME280;63465;50.862;6.220;2023-05-10T08:00:50;99454.50;;;12.62;100.00
74905;BME280;63465;50.862;6.220;2023-05-10T08:03:16;99448.25;;;12.63;100.00
74905;BME280;63465;50.862;6.220;2023-05-10T08:05:41;99465.25;;;12.75;100.00
74905;BME280;63465;50.862;6.220;2023-05-10T08:08:07;99471.69;;;12.42;100.00
74905;BME280;63465;50.862;6.220;2023-05-10T08:10:32;99462.38;;;12.49;100.00
74905;BME280;63465;50.862;6.220;2023-05-10T08:12:57;99460.56;;;12.50;100.00
74905;BME280;63465;50.862;6.220;2023-05-10T08:15:24;99472.28;;;12.76;100.00
74905;BME280;63465;50.862;6.220;2023-05-10T08:17:51;99469.72;;;12.75;100.00
74905;BME280;63465;50.862;6.220;2023-05-10T08:20:17;99462.97;;;12.69;100.00
74905;BME280;63465;50.862;6.220;2023-05-10T08:22:44;99469.25;;;12.82;100.00
74905;BME280;63465;50.862;6.220;2023-05-10T08:25:10;99463.16;;;12.80;100.00
74905;BME280;63465;50.862;6.220;2023-05-10T08:27:35;99469.03;;;13.00;100.00
74905;BME280;63465;50.862;6.220;2023-05-10T08:30:00;99465.63;;;12.98;100.00
74905;BME280;63465;50.862;6.220;2023-05-10T08:32:26;99471.13;;;12.95;100.00
74905;BME280;63465;50.862;6.220;2023-05-10T08:34:51;99471.69;;;13.14;100.00
74905;BME280;63465;50.862;6.220;2023-05-10T08:37:16;99465.97;;;13.35;100.00
74905;BME280;63465;50.862;6.220;2023-05-10T08:39:41;99475.59;;;13.23;100.00
74905;BME280;63465;50.862;6.220;2023-05-10T08:42:07;99471.22;;;13.36;100.00
74905;BME280;63465;50.862;6.220;2023-05-10T08:44:35;99480.19;;;13.35;100.00
74905;BME280;63465;50.862;6.220;2023-05-10T08:47:04;99486.34;;;13.07;100.00
74905;BME280;63465;50.862;6.220;2023-05-10T08:49:32;99489.31;;;12.88;100.00
74905;BME280;63465;50.862;6.220;2023-05-10T08:51:59;99493.19;;;12.97;100.00
74905;BME280;63465;50.862;6.220;2023-05-10T08:54:27;99492.38;;;12.82;100.00
74905;BME280;63465;50.862;6.220;2023-05-10T08:56:52;99506.28;;;12.42;100.00
74905;BME280;63465;50.862;6.220;2023-05-10T08:59:18;99507.03;;;12.44;100.00
74905;BME280;63465;50.862;6.220;2023-05-10T09:01:44;99517.53;;;12.62;100.00
74905;BME280;63465;50.862;6.220;2023-05-10T09:04:10;99510.88;;;12.69;100.00
74905;BME280;63465;50.862;6.220;2023-05-10T09:06:37;99517.31;;;12.51;100.00
74905;BME280;63465;50.862;6.220;2023-05-10T09:09:02;99516.88;;;12.87;100.00
74905;BME280;63465;50.862;6.220;2023-05-10T09:11:28;99520.13;;;12.78;100.00
74905;BME280;63465;50.862;6.220;2023-05-10T09:13:55;99521.34;;;13.15;100.00
74905;BME280;63465;50.862;6.220;2023-05-10T09:16:21;99523.19;;;13.00;100.00
74905;BME280;63465;50.862;6.220;2023-05-10T09:18:47;99526.50;;;13.04;100.00
74905;BME280;63465;50.862;6.220;2023-05-10T09:21:13;99534.41;;;12.91;100.00
74905;BME280;63465;50.862;6.220;2023-05-10T09:23:42;99535.63;;;13.14;100.00
74905;BME280;63465;50.862;6.220;2023-05-10T09:26:08;99539.63;;;12.93;100.00
74905;BME280;63465;50.862;6.220;2023-05-10T09:28:34;99544.00;;;12.94;100.00
74905;BME280;63465;50.862;6.220;2023-05-10T09:31:14;99547.03;;;12.73;100.00
74905;BME280;63465;50.862;6.220;2023-05-10T09:33:47;99539.53;;;12.94;100.00
74905;BME280;63465;50.862;6.220;2023-05-10T09:36:13;99542.66;;;13.15;100.00
74905;BME280;63465;50.862;6.220;2023-05-10T09:38:49;99532.75;;;13.32;100.00
74905;BME280;63465;50.862;6.220;2023-05-10T09:41:21;99541.59;;;13.61;100.00
74905;BME280;63465;50.862;6.220;2023-05-10T09:43:47;99546.47;;;13.54;100.00
74905;BME280;63465;50.862;6.220;2023-05-10T09:46:13;99541.19;;;13.82;100.00
74905;BME280;63465;50.862;6.220;2023-05-10T09:48:46;99557.50;;;13.19;100.00
74905;BME280;63465;50.862;6.220;2023-05-10T09:51:22;99541.34;;;13.51;100.00
74905;BME280;63465;50.862;6.220;2023-05-10T09:53:48;99544.78;;;13.25;100.00
74905;BME280;63465;50.862;6.220;2023-05-10T09:56:33;99537.72;;;13.52;100.00
74905;BME280;63465;50.862;6.220;2023-05-10T09:59:02;99541.13;;;13.26;100.00
74905;BME280;63465;50.862;6.220;2023-05-10T10:01:28;99537.72;;;13.24;100.00
74905;BME280;63465;50.862;6.220;2023-05-10T10:03:54;99539.44;;;13.25;100.00
74905;BME280;63465;50.862;6.220;2023-05-10T10:06:19;99532.00;;;13.15;100.00
74905;BME280;63465;50.862;6.220;2023-05-10T10:08:45;99549.91;;;13.28;100.00
74905;BME280;63465;50.862;6.220;2023-05-10T10:11:11;99545.63;;;13.25;100.00
74905;BME280;63465;50.862;6.220;2023-05-10T10:13:36;99542.66;;;13.15;100.00
74905;BME280;63465;50.862;6.220;2023-05-10T10:16:02;99546.28;;;13.14;100.00
74905;BME280;63465;50.862;6.220;2023-05-10T10:18:28;99554.81;;;12.91;100.00
74905;BME280;63465;50.862;6.220;2023-05-10T10:20:55;99548.09;;;13.43;100.00
74905;BME280;63465;50.862;6.220;2023-05-10T10:23:21;99553.63;;;13.54;100.00
74905;BME280;63465;50.862;6.220;2023-05-10T10:25:47;99542.91;;;13.68;100.00
74905;BME280;63465;50.862;6.220;2023-05-10T10:28:29;99549.78;;;13.58;100.00
74905;BME280;63465;50.862;6.220;2023-05-10T10:31:03;99541.63;;;13.88;100.00
74905;BME280;63465;50.862;6.220;2023-05-10T10:33:51;99542.84;;;13.97;100.00
74905;BME280;63465;50.862;6.220;2023-05-10T10:36:20;99541.38;;;14.06;100.00
74905;BME280;63465;50.862;6.220;2023-05-10T10:44:53;99550.56;;;14.15;100.00
74905;BME280;63465;50.862;6.220;2023-05-10T10:57:49;99551.69;;;14.25;100.00
74905;BME280;63465;50.862;6.220;2023-05-10T11:03:05;99557.03;;;14.38;100.00
74905;BME280;63465;50.862;6.220;2023-05-10T11:05:40;99552.38;;;14.54;100.00
74905;BME280;63465;50.862;6.220;2023-05-10T11:08:28;99554.06;;;14.02;100.00
74905;BME280;63465;50.862;6.220;2023-05-10T11:15:55;99559.88;;;14.49;100.00
74905;BME280;63465;50.862;6.220;2023-05-10T11:18:29;99560.97;;;14.59;100.00
74905;BME280;63465;50.862;6.220;2023-05-10T11:20:58;99554.16;;;14.01;100.00
74905;BME280;63465;50.862;6.220;2023-05-10T11:26:09;99554.91;;;14.70;100.00
74905;BME280;63465;50.862;6.220;2023-05-10T11:28:45;99555.66;;;14.85;100.00
74905;BME280;63465;50.862;6.220;2023-05-10T11:31:13;99559.19;;;15.11;100.00
74905;BME280;63465;50.862;6.220;2023-05-10T11:33:45;99550.97;;;15.14;100.00
74905;BME280;63465;50.862;6.220;2023-05-10T11:36:16;99553.81;;;15.74;97.88
74905;BME280;63465;50.862;6.220;2023-05-10T11:38:41;99549.91;;;16.28;94.32
74905;BME280;63465;50.862;6.220;2023-05-10T11:41:11;99554.13;;;16.55;95.76
74905;BME280;63465;50.862;6.220;2023-05-10T11:43:38;99561.84;;;15.74;95.17
74905;BME280;63465;50.862;6.220;2023-05-10T11:46:08;99555.19;;;16.17;93.98
74905;BME280;63465;50.862;6.220;2023-05-10T11:48:34;99547.72;;;16.33;94.72
74905;BME280;63465;50.862;6.220;2023-05-10T11:51:01;99550.13;;;16.61;94.63
74905;BME280;63465;50.862;6.220;2023-05-10T11:53:27;99552.78;;;16.96;93.83
74905;BME280;63465;50.862;6.220;2023-05-10T11:55:53;99557.13;;;16.39;91.34
74905;BME280;63465;50.862;6.220;2023-05-10T11:58:18;99553.78;;;16.59;92.42
74905;BME280;63465;50.862;6.220;2023-05-10T12:00:44;99551.94;;;16.25;93.10
74905;BME280;63465;50.862;6.220;2023-05-10T12:03:10;99556.50;;;15.87;94.07
74905;BME280;63465;50.862;6.220;2023-05-10T12:05:36;99561.75;;;15.89;95.88
74905;BME280;63465;50.862;6.220;2023-05-10T12:08:15;99562.50;;;15.28;98.56
74905;BME280;63465;50.862;6.220;2023-05-10T12:10:41;99559.13;;;16.24;95.85
74905;BME280;63465;50.862;6.220;2023-05-10T12:13:13;99556.00;;;14.93;100.00
74905;BME280;63465;50.862;6.220;2023-05-10T12:15:39;99557.72;;;15.07;100.00
74905;BME280;63465;50.862;6.220;2023-05-10T12:18:05;99556.84;;;14.94;100.00
74905;BME280;63465;50.862;6.220;2023-05-10T12:20:31;99563.06;;;15.70;99.74
74905;BME280;63465;50.862;6.220;2023-05-10T12:22:57;99563.34;;;15.91;96.67
74905;BME280;63465;50.862;6.220;2023-05-10T12:25:24;99571.50;;;15.77;95.45
74905;BME280;63465;50.862;6.220;2023-05-10T12:27:56;99569.94;;;15.98;96.95
74905;BME280;63465;50.862;6.220;2023-05-10T12:30:24;99568.25;;;15.97;95.79
74905;BME280;63465;50.862;6.220;2023-05-10T12:32:50;99562.59;;;15.89;96.46
74905;BME280;63465;50.862;6.220;2023-05-10T12:35:16;99554.34;;;15.92;95.56
74905;BME280;63465;50.862;6.220;2023-05-10T12:37:44;99562.72;;;16.12;96.72
74905;BME280;63465;50.862;6.220;2023-05-10T12:40:11;99568.56;;;16.17;95.00
74905;BME280;63465;50.862;6.220;2023-05-10T12:42:37;99569.00;;;15.37;96.85
74905;BME280;63465;50.862;6.220;2023-05-10T12:45:04;99573.09;;;15.16;97.16
74905;BME280;63465;50.862;6.220;2023-05-10T12:47:30;99569.78;;;16.13;95.12
74905;BME280;63465;50.862;6.220;2023-05-10T12:49:56;99571.13;;;15.44;98.70
74905;BME280;63465;50.862;6.220;2023-05-10T12:52:21;99579.53;;;15.90;98.33
74905;BME280;63465;50.862;6.220;2023-05-10T12:54:46;99576.56;;;16.05;98.35
74905;BME280;63465;50.862;6.220;2023-05-10T12:57:12;99588.91;;;15.32;99.32
74905;BME280;63465;50.862;6.220;2023-05-10T12:59:38;99590.84;;;15.30;98.41
74905;BME280;63465;50.862;6.220;2023-05-10T13:02:03;99593.75;;;15.90;97.72
74905;BME280;63465;50.862;6.220;2023-05-10T13:04:28;99596.19;;;15.05;97.85
74905;BME280;63465;50.862;6.220;2023-05-10T13:06:54;99589.31;;;15.01;97.98
74905;BME280;63465;50.862;6.220;2023-05-10T13:09:23;99605.78;;;14.94;97.28
74905;BME280;63465;50.862;6.220;2023-05-10T13:11:48;99596.72;;;14.97;97.97
74905;BME280;63465;50.862;6.220;2023-05-10T13:14:14;99602.28;;;15.20;96.91
74905;BME280;63465;50.862;6.220;2023-05-10T13:16:39;99603.09;;;15.72;94.90
74905;BME280;63465;50.862;6.220;2023-05-10T13:19:04;99595.69;;;15.88;94.30
74905;BME280;63465;50.862;6.220;2023-05-10T13:21:30;99589.25;;;16.39;91.70
74905;BME280;63465;50.862;6.220;2023-05-10T13:23:55;99595.03;;;15.97;92.21
74905;BME280;63465;50.862;6.220;2023-05-10T13:26:20;99596.03;;;16.56;89.68
74905;BME280;63465;50.862;6.220;2023-05-10T13:28:46;99590.50;;;15.98;91.53
74905;BME280;63465;50.862;6.220;2023-05-10T13:31:11;99588.13;;;15.56;94.27
74905;BME280;63465;50.862;6.220;2023-05-10T13:33:37;99584.13;;;15.75;93.90
74905;BME280;63465;50.862;6.220;2023-05-10T13:36:02;99589.63;;;15.47;93.77
74905;BME280;63465;50.862;6.220;2023-05-10T13:38:27;99579.00;;;15.72;93.55